Time;durP1;ratioP1;P1;durP2;ratioP2;P2;SDS_P1;SDS_P2;PMS_P1;PMS_P2;Temp;Humidity;BMP_temperature;BMP_pressure;BME280_temperature;BME280_humidity;BME280_pressure;Samples;Min_cycle;Max_cycle;Signal;HPM_P1;HPM_P2
2021/04/01 00:00:46;;;;;;;14.43;13.23;;;12.40;97.20;;;;;;4974098;28;20958;-69
2021/04/01 00:03:12;;;;;;;15.40;14.27;;;12.40;97.10;;;;;;4974319;28;20447;-69
2021/04/01 00:05:38;;;;;;;15.80;14.30;;;12.30;97.20;;;;;;4974144;28;20462;-69
2021/04/01 00:08:05;;;;;;;15.37;13.70;;;12.30;97.50;;;;;;4974173;28;20456;-69
2021/04/01 00:10:36;;;;;;;16.07;14.87;;;12.30;97.50;;;;;;4974049;28;20463;-69
2021/04/01 00:13:02;;;;;;;15.27;13.97;;;12.20;97.70;;;;;;4973735;28;20459;-69
2021/04/01 00:15:29;;;;;;;17.60;15.93;;;12.20;97.90;;;;;;4974265;28;20507;-69
2021/04/01 00:17:56;;;;;;;17.20;15.40;;;12.20;98.10;;;;;;4973755;28;20483;-69
2021/04/01 00:20:22;;;;;;;15.07;13.87;;;12.10;98.20;;;;;;4973755;28;20456;-69
2021/04/01 00:22:49;;;;;;;15.47;13.97;;;12.10;98.00;;;;;;4973764;28;20467;-69
2021/04/01 00:25:17;;;;;;;16.33;14.97;;;12.10;98.30;;;;;;4973727;28;20562;-68
2021/04/01 00:27:43;;;;;;;16.27;15.03;;;12.00;98.40;;;;;;4973723;28;20462;-69
2021/04/01 00:30:11;;;;;;;14.77;13.67;;;12.00;98.30;;;;;;4973705;28;20456;-68
2021/04/01 00:32:37;;;;;;;15.57;14.37;;;12.00;98.20;;;;;;4973562;28;20506;-68
2021/04/01 00:35:06;;;;;;;15.50;14.10;;;12.00;98.20;;;;;;4973772;28;20451;-68
2021/04/01 00:37:32;;;;;;;15.73;14.30;;;11.90;98.10;;;;;;4973668;28;20817;-68
2021/04/01 00:39:59;;;;;;;14.97;13.60;;;11.90;98.20;;;;;;4973483;28;20452;-68
2021/04/01 00:42:25;;;;;;;14.37;13.03;;;12.00;98.30;;;;;;4973515;28;20869;-69
2021/04/01 00:44:52;;;;;;;14.17;13.23;;;11.90;98.40;;;;;;4973447;28;20484;-69
2021/04/01 00:47:18;;;;;;;16.10;14.60;;;11.90;98.50;;;;;;4973411;28;20512;-68
2021/04/01 00:49:44;;;;;;;15.50;14.30;;;11.80;98.60;;;;;;4973394;28;20456;-68
2021/04/01 00:52:11;;;;;;;14.73;13.47;;;11.80;98.80;;;;;;4973430;28;20443;-68
2021/04/01 00:54:38;;;;;;;15.97;14.77;;;11.80;99.00;;;;;;4973265;28;20521;-68
2021/04/01 00:57:05;;;;;;;17.73;15.17;;;11.70;99.20;;;;;;4973084;28;20466;-68
2021/04/01 00:59:32;;;;;;;17.17;15.97;;;11.70;99.40;;;;;;4973095;28;20846;-69
2021/04/01 01:02:01;;;;;;;16.83;15.53;;;11.70;99.50;;;;;;4973295;28;20518;-69
2021/04/01 01:04:28;;;;;;;14.23;13.23;;;11.60;99.50;;;;;;4973123;28;20517;-69
2021/04/01 01:06:55;;;;;;;14.80;13.63;;;11.60;99.50;;;;;;4973206;28;20467;-69
2021/04/01 01:09:22;;;;;;;16.23;14.60;;;11.60;99.70;;;;;;4972937;28;20533;-69
2021/04/01 01:11:48;;;;;;;16.10;15.00;;;11.50;99.90;;;;;;4972820;28;20451;-69
2021/04/01 01:14:14;;;;;;;17.27;15.67;;;11.50;99.90;;;;;;4972964;28;20463;-69
2021/04/01 01:16:41;;;;;;;16.33;14.83;;;11.40;99.90;;;;;;4972730;28;20530;-69
2021/04/01 01:19:09;;;;;;;16.00;14.50;;;11.40;99.90;;;;;;4972494;28;20492;-69
2021/04/01 01:21:35;;;;;;;17.60;16.00;;;11.40;99.90;;;;;;4972748;28;20598;-69
2021/04/01 01:24:03;;;;;;;17.00;15.37;;;11.40;99.90;;;;;;4972563;28;20486;-69
2021/04/01 01:26:31;;;;;;;16.53;14.90;;;11.40;99.90;;;;;;4972396;28;20458;-69
2021/04/01 01:28:58;;;;;;;15.87;14.77;;;11.30;99.90;;;;;;4972854;28;20552;-69
2021/04/01 01:31:25;;;;;;;15.20;14.10;;;11.30;99.90;;;;;;4972502;28;20452;-69
2021/04/01 01:33:55;;;;;;;26.73;15.80;;;11.30;99.90;;;;;;4972338;28;20452;-69
2021/04/01 01:36:21;;;;;;;16.07;14.77;;;11.20;99.90;;;;;;4972336;28;20461;-69
2021/04/01 01:38:47;;;;;;;15.50;14.30;;;11.20;99.90;;;;;;4972486;28;20451;-68
2021/04/01 01:41:14;;;;;;;15.13;13.93;;;11.10;99.90;;;;;;4972487;28;20814;-68
2021/04/01 01:43:41;;;;;;;14.83;13.83;;;11.10;99.90;;;;;;4972420;28;20484;-68
2021/04/01 01:46:07;;;;;;;15.67;14.37;;;11.10;99.90;;;;;;4972035;28;20452;-68
2021/04/01 01:48:34;;;;;;;15.50;14.20;;;11.10;99.90;;;;;;4972331;28;20459;-68
2021/04/01 01:51:01;;;;;;;16.47;15.00;;;11.10;99.90;;;;;;4972187;28;20451;-69
2021/04/01 01:53:28;;;;;;;16.87;15.30;;;11.10;99.90;;;;;;4972314;28;20460;-68
2021/04/01 01:55:54;;;;;;;15.53;14.30;;;11.00;99.90;;;;;;4971947;28;20454;-68
2021/04/01 01:58:22;;;;;;;15.50;14.07;;;11.00;99.90;;;;;;4972188;28;20454;-68
2021/04/01 02:00:52;;;;;;;14.67;13.47;;;11.00;99.90;;;;;;4972138;28;20469;-68
2021/04/01 02:03:19;;;;;;;14.83;13.67;;;11.00;99.90;;;;;;4972214;28;20895;-67
2021/04/01 02:05:45;;;;;;;15.20;13.70;;;10.90;99.90;;;;;;4971917;28;20954;-68
2021/04/01 02:08:13;;;;;;;14.60;13.50;;;10.90;99.90;;;;;;4972187;28;20455;-68
2021/04/01 02:10:42;;;;;;;16.70;15.40;;;10.90;99.90;;;;;;4972156;28;20463;-68
2021/04/01 02:13:10;;;;;;;16.30;14.60;;;10.80;99.90;;;;;;4971900;28;20529;-68
2021/04/01 02:15:37;;;;;;;16.53;15.00;;;10.80;99.90;;;;;;4971865;28;20460;-68
2021/04/01 02:18:09;;;;;;;16.20;14.93;;;10.80;99.90;;;;;;4971500;28;20486;-68
2021/04/01 02:20:41;;;;;;;18.90;17.33;;;10.80;99.90;;;;;;4971822;28;20455;-68
2021/04/01 02:23:09;;;;;;;18.77;17.37;;;10.80;99.90;;;;;;4971910;28;20485;-68
2021/04/01 02:25:35;;;;;;;18.33;16.67;;;10.80;99.90;;;;;;4971733;28;20677;-68
2021/04/01 02:28:01;;;;;;;17.97;16.33;;;10.80;99.90;;;;;;4971500;28;20977;-68
2021/04/01 02:30:28;;;;;;;15.50;14.30;;;10.80;99.90;;;;;;4972203;28;20454;-68
2021/04/01 02:32:54;;;;;;;14.70;13.67;;;10.70;99.90;;;;;;4971755;28;20463;-68
2021/04/01 02:35:21;;;;;;;17.13;15.37;;;10.70;99.90;;;;;;4971870;28;20843;-68
2021/04/01 02:37:48;;;;;;;17.47;15.87;;;10.70;99.90;;;;;;4971593;28;20820;-68
2021/04/01 02:40:15;;;;;;;17.37;15.57;;;10.60;99.90;;;;;;4971896;28;20953;-68
2021/04/01 02:42:41;;;;;;;16.17;14.50;;;10.60;99.90;;;;;;4971685;28;20962;-68
2021/04/01 02:45:09;;;;;;;16.50;15.10;;;10.60;99.90;;;;;;4971896;28;20538;-68
2021/04/01 02:47:36;;;;;;;15.30;14.20;;;10.60;99.90;;;;;;4971487;28;20460;-68
2021/04/01 02:50:02;;;;;;;16.97;15.73;;;10.60;99.90;;;;;;4971767;28;20459;-68
2021/04/01 02:52:29;;;;;;;16.70;15.50;;;10.50;99.90;;;;;;4971735;28;20456;-69
2021/04/01 02:54:55;;;;;;;16.67;15.40;;;10.50;99.90;;;;;;4971656;28;20456;-69
2021/04/01 02:57:21;;;;;;;14.87;13.70;;;10.40;99.90;;;;;;4971393;28;20456;-69
2021/04/01 02:59:48;;;;;;;16.70;15.50;;;10.40;99.90;;;;;;4971454;28;20485;-69
2021/04/01 03:02:15;;;;;;;16.47;15.37;;;10.40;99.90;;;;;;4973568;28;20448;-68
2021/04/01 03:04:43;;;;;;;17.87;16.57;;;10.30;99.90;;;;;;4975246;28;20491;-68
2021/04/01 03:07:09;;;;;;;17.83;16.43;;;10.30;99.90;;;;;;4975502;28;20457;-69
2021/04/01 03:09:37;;;;;;;16.73;15.53;;;10.30;99.90;;;;;;4975195;28;20966;-68
2021/04/01 03:12:04;;;;;;;18.50;16.60;;;10.20;99.90;;;;;;4975060;28;20941;-67
2021/04/01 03:14:30;;;;;;;16.57;15.47;;;10.20;99.90;;;;;;4974995;28;20854;-67
2021/04/01 03:16:57;;;;;;;15.40;14.20;;;10.20;99.90;;;;;;4975071;28;20611;-68
2021/04/01 03:19:23;;;;;;;15.20;14.03;;;10.20;99.90;;;;;;4975139;28;20832;-68
2021/04/01 03:21:49;;;;;;;15.87;14.57;;;10.20;99.90;;;;;;4974906;28;20682;-68
2021/04/01 03:24:17;;;;;;;17.07;15.70;;;10.20;99.90;;;;;;4974715;28;21002;-68
2021/04/01 03:26:44;;;;;;;16.60;15.40;;;10.20;99.90;;;;;;4974926;28;20979;-68
2021/04/01 03:29:10;;;;;;;17.17;15.93;;;10.20;99.90;;;;;;4974919;28;20474;-69
2021/04/01 03:31:37;;;;;;;17.57;16.13;;;10.10;99.90;;;;;;4974852;28;20873;-69
2021/04/01 03:34:03;;;;;;;16.27;14.97;;;10.10;99.90;;;;;;4974756;28;20496;-69
2021/04/01 03:36:30;;;;;;;16.43;15.23;;;10.10;99.90;;;;;;4974866;28;20859;-69
2021/04/01 03:38:57;;;;;;;18.37;16.53;;;10.10;99.90;;;;;;4974823;28;20457;-69
2021/04/01 03:41:23;;;;;;;17.77;16.20;;;10.10;99.90;;;;;;4974707;28;20582;-68
2021/04/01 03:43:50;;;;;;;18.10;16.57;;;10.10;99.90;;;;;;4974498;28;20534;-68
2021/04/01 03:46:16;;;;;;;18.87;17.10;;;10.10;99.90;;;;;;4974177;28;20463;-68
2021/04/01 03:48:42;;;;;;;17.70;16.13;;;10.10;99.90;;;;;;4974656;28;20505;-68
2021/04/01 03:51:08;;;;;;;16.63;15.43;;;10.10;99.90;;;;;;4974425;28;20815;-68
2021/04/01 03:53:35;;;;;;;17.40;15.80;;;10.10;99.90;;;;;;4974205;28;20467;-68
2021/04/01 03:56:01;;;;;;;17.63;16.23;;;10.10;99.90;;;;;;4974223;28;20488;-68
2021/04/01 04:04:07;;;;;;;16.73;15.50;;;10.10;99.90;;;;;;4963496;28;20478;-68
2021/04/01 04:06:54;;;;;;;16.40;14.87;;;10.10;99.90;;;;;;4974272;28;20455;-68
2021/04/01 04:09:43;;;;;;;16.23;15.03;;;10.10;99.90;;;;;;4974037;28;20990;-67
2021/04/01 04:12:18;;;;;;;16.50;15.00;;;10.10;99.90;;;;;;4973851;28;20440;-67
2021/04/01 04:14:46;;;;;;;16.60;15.27;;;10.00;99.90;;;;;;4973948;28;20452;-68
2021/04/01 04:17:13;;;;;;;16.73;15.80;;;9.90;99.90;;;;;;4973966;28;20565;-67
2021/04/01 04:19:40;;;;;;;15.03;14.00;;;9.90;99.90;;;;;;4973984;28;20490;-68
2021/04/01 04:22:08;;;;;;;15.07;13.77;;;9.80;99.90;;;;;;4973947;28;20456;-68
2021/04/01 04:24:35;;;;;;;14.43;13.53;;;9.80;99.90;;;;;;4973670;28;20746;-67
2021/04/01 04:27:10;;;;;;;17.23;15.93;;;9.80;99.90;;;;;;4973283;28;20877;-68
2021/04/01 04:29:37;;;;;;;17.10;15.47;;;9.80;99.90;;;;;;4973758;28;20505;-68
2021/04/01 04:32:04;;;;;;;20.47;16.93;;;9.80;99.90;;;;;;4973514;28;20451;-68
2021/04/01 04:34:31;;;;;;;18.60;17.00;;;9.90;99.90;;;;;;4973703;28;20443;-68
2021/04/01 04:36:57;;;;;;;19.10;15.40;;;9.90;99.90;;;;;;4973508;28;20456;-69
2021/04/01 04:39:23;;;;;;;16.67;14.60;;;9.90;99.90;;;;;;4973503;28;20451;-68
2021/04/01 04:41:49;;;;;;;17.20;15.67;;;9.90;99.90;;;;;;4973352;28;20818;-68
2021/04/01 04:44:15;;;;;;;19.67;17.10;;;9.90;99.90;;;;;;4973394;28;20504;-68
2021/04/01 04:46:41;;;;;;;17.53;16.10;;;9.90;99.90;;;;;;4973324;28;20456;-69
2021/04/01 04:49:08;;;;;;;16.03;14.93;;;9.90;99.90;;;;;;4973437;28;20791;-68
2021/04/01 04:51:35;;;;;;;17.93;16.20;;;9.90;99.90;;;;;;4973084;28;20456;-68
2021/04/01 04:54:02;;;;;;;17.47;15.77;;;9.80;99.90;;;;;;4973174;28;20494;-67
2021/04/01 04:56:31;;;;;;;17.03;15.70;;;9.80;99.90;;;;;;4973116;28;20462;-67
2021/04/01 04:59:02;;;;;;;17.33;15.67;;;9.80;99.90;;;;;;4973206;28;20455;-67
2021/04/01 05:07:00;;;;;;;16.33;15.17;;;9.70;99.90;;;;;;4973254;28;20505;-67
2021/04/01 05:09:26;;;;;;;18.73;16.40;;;9.70;99.90;;;;;;4973466;28;20460;-68
2021/04/01 05:11:52;;;;;;;19.53;17.90;;;9.80;99.90;;;;;;4972861;28;20792;-69
2021/04/01 05:14:18;;;;;;;22.30;18.17;;;9.90;99.90;;;;;;4972609;28;20462;-68
2021/04/01 05:16:45;;;;;;;18.27;16.33;;;9.90;99.90;;;;;;4972729;28;20487;-69
2021/04/01 05:19:12;;;;;;;18.13;16.23;;;9.90;99.90;;;;;;4972749;28;20451;-67
2021/04/01 05:21:45;;;;;;;18.37;16.50;;;10.00;99.90;;;;;;4972631;28;20460;-67
2021/04/01 05:24:13;;;;;;;18.70;16.40;;;10.10;99.90;;;;;;4972010;28;20544;-67
2021/04/01 05:29:27;;;;;;;18.07;16.50;;;10.10;99.90;;;;;;4972609;28;20997;-68
2021/04/01 05:31:53;;;;;;;22.53;18.33;;;10.10;99.90;;;;;;4972234;28;20454;-68
2021/04/01 05:34:22;;;;;;;20.80;17.97;;;10.20;99.90;;;;;;4972330;28;20443;-68
2021/04/01 05:36:48;;;;;;;20.17;17.90;;;10.30;99.90;;;;;;4972369;28;20455;-68
2021/04/01 05:39:17;;;;;;;22.77;18.23;;;10.40;99.90;;;;;;4972595;28;20452;-68
2021/04/01 05:41:47;;;;;;;19.03;17.23;;;10.40;99.90;;;;;;4972581;28;20463;-68
2021/04/01 05:44:17;;;;;;;18.90;16.10;;;10.50;99.90;;;;;;4972177;28;20495;-68
2021/04/01 05:46:51;;;;;;;18.93;17.43;;;10.50;99.90;;;;;;4972190;28;20455;-67
2021/04/01 05:49:34;;;;;;;19.47;17.77;;;10.50;99.90;;;;;;4972197;28;20461;-68
2021/04/01 05:57:47;;;;;;;20.53;16.00;;;10.70;99.90;;;;;;4972284;28;20469;-68
2021/04/01 06:03:17;;;;;;;17.70;16.07;;;11.00;99.90;;;;;;4966732;28;20444;-68
2021/04/01 06:05:46;;;;;;;17.87;15.80;;;11.30;99.90;;;;;;4972160;28;20846;-68
2021/04/01 06:08:15;;;;;;;19.80;18.00;;;11.50;99.90;;;;;;4971898;28;20462;-68
2021/04/01 06:10:42;;;;;;;18.97;17.07;;;11.50;99.90;;;;;;4971849;28;20459;-68
2021/04/01 06:13:10;;;;;;;19.73;18.03;;;11.50;99.90;;;;;;4971860;28;20513;-68
2021/04/01 06:15:37;;;;;;;19.13;17.20;;;11.60;99.90;;;;;;4972216;28;20837;-68
2021/04/01 06:18:10;;;;;;;19.87;18.23;;;11.70;99.90;;;;;;4971754;28;21056;-68
2021/04/01 06:20:37;;;;;;;19.93;17.33;;;12.00;99.90;;;;;;4971578;28;20993;-68
2021/04/01 06:23:04;;;;;;;18.33;16.50;;;12.30;99.90;;;;;;4971702;28;20757;-69
2021/04/01 06:25:35;;;;;;;18.37;16.60;;;12.50;99.90;;;;;;4971779;28;20494;-69
2021/04/01 06:28:06;;;;;;;17.27;15.87;;;12.80;99.90;;;;;;4971948;28;20510;-68
2021/04/01 06:30:45;;;;;;;18.53;16.50;;;12.90;99.90;;;;;;4971674;28;20965;-68
2021/04/01 06:33:12;;;;;;;19.23;17.37;;;12.70;99.90;;;;;;4971789;28;20505;-68
2021/04/01 06:35:45;;;;;;;19.23;17.40;;;12.50;99.90;;;;;;4972620;28;20502;-68
2021/04/01 06:38:26;;;;;;;19.37;17.77;;;12.70;99.90;;;;;;4976028;28;20459;-68
2021/04/01 06:40:56;;;;;;;17.77;16.10;;;13.10;99.90;;;;;;4975508;28;20567;-69
2021/04/01 06:43:38;;;;;;;18.53;16.70;;;13.50;99.90;;;;;;4975430;28;20470;-66
2021/04/01 06:46:07;;;;;;;17.90;16.00;;;13.70;99.10;;;;;;4975171;28;20855;-67
2021/04/01 06:51:25;;;;;;;19.40;17.70;;;14.00;98.90;;;;;;4972459;28;20447;-67
2021/04/01 06:54:00;;;;;;;18.23;16.73;;;14.00;98.30;;;;;;4975528;28;20451;-66
2021/04/01 06:56:39;;;;;;;18.30;16.80;;;14.20;98.00;;;;;;4975056;28;20474;-66
2021/04/01 06:59:12;;;;;;;17.23;16.00;;;13.90;98.50;;;;;;4975228;28;20466;-67
2021/04/01 07:01:47;;;;;;;16.07;14.87;;;13.60;98.90;;;;;;4975280;28;20455;-66
2021/04/01 07:04:14;;;;;;;18.37;16.90;;;13.50;99.70;;;;;;4975112;28;21068;-65
2021/04/01 07:06:45;;;;;;;16.30;15.20;;;13.50;99.20;;;;;;4975115;28;20452;-67
2021/04/01 07:09:33;;;;;;;17.20;15.97;;;13.80;99.10;;;;;;4975327;28;20467;-66
2021/04/01 07:12:14;;;;;;;15.37;14.20;;;13.80;98.40;;;;;;4975022;28;20499;-68
2021/04/01 07:14:43;;;;;;;17.53;15.97;;;14.00;98.60;;;;;;4975041;28;20523;-67
2021/04/01 07:17:14;;;;;;;17.17;15.73;;;14.50;97.90;;;;;;4974668;28;20497;-67
2021/04/01 07:19:55;;;;;;;16.00;15.10;;;14.80;97.30;;;;;;4974937;28;20462;-69
2021/04/01 07:22:54;;;;;;;16.93;15.50;;;15.00;96.80;;;;;;4974676;28;21026;-70
2021/04/01 07:31:32;;;;;;;17.20;15.70;;;15.80;95.30;;;;;;4974524;28;20892;-69
2021/04/01 07:47:47;;;;;;;18.53;16.97;;;16.90;92.70;;;;;;4958523;28;20526;-72
2021/04/01 07:50:18;;;;;;;16.93;15.57;;;17.20;91.80;;;;;;4964490;28;20513;-72
2021/04/01 07:52:51;;;;;;;16.13;14.83;;;17.20;91.70;;;;;;4978012;28;20457;-73
2021/04/01 07:55:23;;;;;;;17.43;16.13;;;17.60;91.40;;;;;;4984110;28;20451;-72
2021/04/01 07:58:11;;;;;;;17.17;15.67;;;18.10;90.70;;;;;;4973985;28;20460;-72
2021/04/01 08:00:43;;;;;;;19.33;17.80;;;18.90;88.90;;;;;;4974200;28;20448;-72
2021/04/01 08:06:02;;;;;;;16.53;15.50;;;19.50;85.60;;;;;;4973500;28;20558;-72
2021/04/01 08:08:35;;;;;;;18.10;16.80;;;19.30;86.20;;;;;;4974446;28;20463;-72
2021/04/01 08:11:03;;;;;;;17.07;16.07;;;20.00;84.30;;;;;;4974380;28;20459;-72
2021/04/01 08:13:33;;;;;;;18.70;17.37;;;20.10;82.30;;;;;;4974326;28;20455;-73
2021/04/01 08:16:04;;;;;;;18.37;16.90;;;20.00;82.90;;;;;;4974065;28;20562;-72
2021/04/01 08:18:34;;;;;;;18.90;17.40;;;20.30;81.80;;;;;;4973940;28;20562;-73
2021/04/01 08:21:04;;;;;;;18.40;16.90;;;20.20;81.10;;;;;;4973805;28;20474;-73
2021/04/01 08:23:31;;;;;;;17.53;16.30;;;20.30;81.30;;;;;;4973481;28;20828;-73
2021/04/01 08:26:12;;;;;;;17.93;16.60;;;20.50;80.60;;;;;;4973266;28;20498;-74
2021/04/01 08:28:47;;;;;;;18.97;17.60;;;20.40;81.20;;;;;;4971087;28;20475;-73
2021/04/01 08:31:41;;;;;;;18.80;17.20;;;20.50;80.60;;;;;;4973292;28;20479;-73
2021/04/01 08:34:17;;;;;;;17.63;16.33;;;21.00;79.50;;;;;;4973447;28;20454;-73
2021/04/01 08:36:46;;;;;;;18.40;17.23;;;21.30;78.50;;;;;;4973326;28;20451;-73
2021/04/01 08:39:14;;;;;;;18.23;16.77;;;21.50;77.80;;;;;;4973448;28;20447;-73
2021/04/01 08:42:16;;;;;;;19.23;17.80;;;21.00;78.30;;;;;;4973387;28;20452;-72
2021/04/01 08:45:23;;;;;;;18.93;17.73;;;20.40;80.30;;;;;;4973408;28;20546;-73
2021/04/01 08:48:20;;;;;;;18.97;17.30;;;19.80;82.30;;;;;;4961112;28;20518;-72
2021/04/01 08:51:01;;;;;;;16.90;15.60;;;19.60;83.20;;;;;;4973385;28;20452;-72
2021/04/01 08:53:44;;;;;;;18.33;16.67;;;19.70;83.20;;;;;;4973319;28;20455;-73
2021/04/01 08:56:22;;;;;;;19.50;17.77;;;19.90;83.00;;;;;;4973212;28;20443;-73
2021/04/01 08:58:59;;;;;;;17.70;16.40;;;20.20;82.50;;;;;;4972299;28;20515;-73
2021/04/01 09:01:29;;;;;;;18.63;16.93;;;20.80;80.90;;;;;;4972923;28;20463;-76
2021/04/01 09:03:58;;;;;;;17.83;16.60;;;21.70;78.80;;;;;;4972866;28;21007;-73
2021/04/01 09:06:30;;;;;;;17.80;16.70;;;22.20;76.90;;;;;;4972662;28;20452;-71
2021/04/01 09:09:04;;;;;;;18.47;16.97;;;22.90;74.90;;;;;;4973001;28;20463;-71
2021/04/01 09:11:36;;;;;;;20.53;17.30;;;23.50;73.20;;;;;;4972675;28;20455;-70
2021/04/01 09:14:13;;;;;;;20.17;18.10;;;23.90;71.60;;;;;;4972666;28;20448;-71
2021/04/01 09:16:43;;;;;;;19.37;17.80;;;23.90;70.70;;;;;;4972637;28;20556;-70
2021/04/01 09:19:13;;;;;;;19.57;17.47;;;24.40;68.80;;;;;;4972645;28;20469;-71
2021/04/01 09:21:42;;;;;;;19.67;17.70;;;24.50;67.80;;;;;;4972608;28;20938;-71
2021/04/01 09:24:11;;;;;;;17.20;15.83;;;24.90;67.00;;;;;;4972709;28;20451;-71
2021/04/01 09:26:45;;;;;;;21.37;19.67;;;25.00;66.40;;;;;;4972399;28;20702;-71
2021/04/01 09:29:11;;;;;;;20.63;18.47;;;24.90;65.40;;;;;;4972560;28;20447;-71
2021/04/01 09:31:43;;;;;;;22.27;19.87;;;25.00;65.80;;;;;;4966974;28;20488;-71
2021/04/01 09:34:11;;;;;;;21.47;19.30;;;25.40;65.10;;;;;;4966375;28;20463;-72
2021/04/01 09:36:38;;;;;;;25.03;20.80;;;25.90;62.60;;;;;;4956273;28;20459;-71
2021/04/01 09:39:22;;;;;;;20.73;18.97;;;26.20;61.90;;;;;;4955174;28;20460;-71
2021/04/01 09:41:50;;;;;;;22.47;20.63;;;26.90;60.00;;;;;;4972643;28;20459;-71
2021/04/01 09:44:16;;;;;;;22.10;20.17;;;27.60;57.50;;;;;;4972404;28;20451;-71
2021/04/01 09:46:57;;;;;;;22.50;20.37;;;28.10;55.60;;;;;;4972551;28;20459;-72
2021/04/01 09:49:28;;;;;;;20.10;18.90;;;28.90;53.50;;;;;;4956647;28;20449;-72
2021/04/01 09:51:55;;;;;;;21.80;19.87;;;29.30;51.70;;;;;;4953425;29;21001;-72
2021/04/01 09:54:26;;;;;;;21.53;19.53;;;29.80;49.70;;;;;;4953034;28;20457;-72
2021/04/01 09:56:56;;;;;;;18.93;17.60;;;29.50;49.70;;;;;;4952988;29;20821;-72
2021/04/01 09:59:36;;;;;;;20.60;18.87;;;30.60;47.70;;;;;;4953117;28;20801;-72
2021/04/01 10:02:04;;;;;;;20.10;17.57;;;30.80;45.70;;;;;;4952930;29;20950;-72
2021/04/01 10:04:33;;;;;;;19.47;17.90;;;30.80;44.70;;;;;;4953240;28;20579;-72
2021/04/01 10:07:12;;;;;;;20.20;18.70;;;30.50;44.60;;;;;;4972017;28;20456;-73
2021/04/01 10:09:49;;;;;;;19.60;18.40;;;30.50;44.70;;;;;;4971902;28;20529;-73
2021/04/01 10:12:18;;;;;;;18.00;16.70;;;31.30;43.40;;;;;;4972068;28;20456;-73
2021/04/01 10:14:49;;;;;;;18.20;16.90;;;31.80;42.30;;;;;;4972034;28;20786;-73
2021/04/01 10:17:16;;;;;;;19.43;18.10;;;32.40;41.80;;;;;;4971525;28;20494;-72
2021/04/01 10:19:44;;;;;;;20.27;19.07;;;32.50;40.40;;;;;;4971917;28;20467;-73
2021/04/01 10:22:19;;;;;;;16.70;15.47;;;33.30;39.30;;;;;;4971866;28;20462;-73
2021/04/01 10:24:47;;;;;;;18.10;16.93;;;34.50;37.10;;;;;;4971794;28;20494;-73
2021/04/01 10:27:23;;;;;;;18.13;16.93;;;34.50;35.30;;;;;;4971968;28;20458;-73
2021/04/01 10:30:02;;;;;;;17.60;16.57;;;33.60;36.40;;;;;;4971943;28;21024;-72
2021/04/01 10:32:35;;;;;;;17.93;16.90;;;34.30;35.30;;;;;;4969457;28;20462;-75
2021/04/01 10:35:05;;;;;;;19.43;18.00;;;34.30;34.60;;;;;;4971438;28;20870;-75
2021/04/01 10:37:32;;;;;;;19.37;18.13;;;35.10;33.70;;;;;;4972255;28;20887;-76
2021/04/01 10:40:33;;;;;;;19.97;18.37;;;35.70;32.50;;;;;;4961066;28;20456;-72
2021/04/01 10:43:07;;;;;;;18.80;17.80;;;36.60;31.30;;;;;;4942226;28;20464;-73
2021/04/01 10:45:34;;;;;;;18.10;16.90;;;35.70;31.40;;;;;;4952281;29;20561;-73
2021/04/01 10:48:21;;;;;;;18.13;17.40;;;35.20;31.30;;;;;;4952268;28;20483;-73
2021/04/01 10:50:48;;;;;;;17.97;17.10;;;35.30;32.00;;;;;;4952068;28;20556;-73
2021/04/01 10:53:18;;;;;;;17.77;16.77;;;36.10;30.90;;;;;;4952574;29;20459;-75
2021/04/01 10:55:46;;;;;;;18.20;17.00;;;36.60;29.90;;;;;;4966164;28;20507;-75
2021/04/01 10:58:14;;;;;;;18.07;16.73;;;37.10;29.40;;;;;;4971950;28;20950;-76
2021/04/01 11:00:41;;;;;;;18.70;17.37;;;36.70;29.30;;;;;;4971988;28;20455;-75
2021/04/01 11:03:16;;;;;;;18.50;17.30;;;36.30;30.00;;;;;;4972014;28;20456;-76
2021/04/01 11:05:43;;;;;;;18.20;17.20;;;36.40;29.60;;;;;;4972067;28;20859;-75
2021/04/01 11:08:11;;;;;;;17.57;16.67;;;35.20;30.50;;;;;;4969515;28;20825;-76
2021/04/01 11:10:39;;;;;;;17.77;16.67;;;34.70;31.40;;;;;;4952200;29;20455;-77
2021/04/01 11:13:09;;;;;;;18.97;17.80;;;34.00;32.10;;;;;;4952251;29;20456;-75
2021/04/01 11:15:36;;;;;;;18.17;16.87;;;35.20;30.60;;;;;;4952391;28;20813;-75
2021/04/01 11:18:06;;;;;;;17.77;16.60;;;35.70;30.20;;;;;;4951979;29;20484;-75
2021/04/01 11:20:35;;;;;;;18.17;17.17;;;35.40;30.60;;;;;;4952266;29;20456;-76
2021/04/01 11:23:06;;;;;;;17.50;16.60;;;35.80;30.00;;;;;;4954010;28;20452;-75
2021/04/01 11:25:34;;;;;;;16.23;15.43;;;35.50;30.20;;;;;;4955732;29;20515;-75
2021/04/01 11:28:00;;;;;;;17.00;15.70;;;34.40;31.40;;;;;;4955722;29;20543;-75
2021/04/01 11:30:42;;;;;;;16.27;15.37;;;34.00;32.00;;;;;;4955705;29;20822;-75
2021/04/01 11:33:10;;;;;;;16.70;15.70;;;33.10;33.10;;;;;;4955577;29;20456;-75
2021/04/01 11:35:39;;;;;;;19.73;18.63;;;33.60;32.50;;;;;;4955294;29;20463;-75
2021/04/01 11:38:08;;;;;;;16.13;15.23;;;33.40;32.80;;;;;;4955600;29;20917;-75
2021/04/01 11:40:36;;;;;;;18.80;17.20;;;33.60;32.10;;;;;;4971004;28;20945;-75
2021/04/01 11:43:02;;;;;;;16.33;15.30;;;32.60;33.20;;;;;;4974594;28;20506;-75
2021/04/01 11:45:31;;;;;;;15.73;15.00;;;32.30;33.80;;;;;;4974775;28;20487;-74
2021/04/01 11:47:59;;;;;;;17.17;16.17;;;31.60;34.60;;;;;;4974574;28;20824;-74
2021/04/01 11:50:26;;;;;;;15.80;15.20;;;31.70;35.10;;;;;;4974551;28;20467;-75
2021/04/01 11:53:00;;;;;;;15.50;14.90;;;32.30;34.30;;;;;;4974247;28;20463;-75
2021/04/01 11:55:27;;;;;;;15.00;14.30;;;32.70;34.60;;;;;;4974433;28;20972;-74
2021/04/01 11:57:55;;;;;;;15.20;14.60;;;33.00;33.40;;;;;;4974584;28;20451;-75
2021/04/01 12:00:26;;;;;;;15.90;15.00;;;33.70;32.40;;;;;;4974441;28;20475;-74
2021/04/01 12:02:55;;;;;;;17.20;16.30;;;33.30;32.90;;;;;;4974220;28;20453;-75
2021/04/01 12:05:23;;;;;;;16.70;15.87;;;33.40;33.00;;;;;;4974192;28;20590;-75
2021/04/01 12:07:50;;;;;;;15.60;14.90;;;31.80;34.10;;;;;;4974135;28;20463;-75
2021/04/01 12:10:17;;;;;;;15.90;15.10;;;32.40;34.10;;;;;;4974171;28;20462;-75
2021/04/01 12:12:43;;;;;;;16.33;15.53;;;32.20;34.10;;;;;;4974378;28;20456;-75
2021/04/01 12:15:10;;;;;;;16.00;15.03;;;32.50;33.80;;;;;;4973998;28;20938;-75
2021/04/01 12:17:39;;;;;;;16.30;15.60;;;32.80;33.40;;;;;;4974079;28;20498;-74
2021/04/01 12:20:09;;;;;;;15.13;14.23;;;33.30;33.10;;;;;;4974250;28;20456;-75
2021/04/01 12:22:39;;;;;;;16.40;15.30;;;34.40;32.10;;;;;;4974000;28;20452;-75
2021/04/01 12:25:09;;;;;;;16.80;15.70;;;34.10;31.50;;;;;;4973810;28;20490;-75
2021/04/01 12:27:36;;;;;;;17.10;16.30;;;33.60;32.10;;;;;;4974043;28;20681;-75
2021/04/01 12:30:04;;;;;;;16.70;15.80;;;32.70;32.90;;;;;;4973937;28;20810;-74
2021/04/01 12:32:32;;;;;;;17.40;16.30;;;32.10;33.70;;;;;;4973928;28;20451;-75
2021/04/01 12:35:10;;;;;;;15.97;15.30;;;31.70;34.50;;;;;;4973772;28;20817;-75
2021/04/01 12:37:38;;;;;;;18.53;17.30;;;31.70;34.00;;;;;;4974047;28;20567;-75
2021/04/01 12:40:14;;;;;;;14.83;14.23;;;31.70;34.40;;;;;;4961571;28;20508;-73
2021/04/01 12:42:41;;;;;;;15.53;14.67;;;31.30;34.00;;;;;;4954619;29;20464;-75
2021/04/01 12:45:26;;;;;;;15.43;14.57;;;31.20;34.60;;;;;;4954423;29;20857;-74
2021/04/01 12:48:05;;;;;;;16.10;15.00;;;30.30;35.40;;;;;;4954542;29;20832;-74
2021/04/01 12:50:33;;;;;;;17.37;15.80;;;30.50;35.50;;;;;;4954203;29;20499;-74
2021/04/01 12:53:01;;;;;;;15.73;14.73;;;31.10;34.50;;;;;;4954206;29;20500;-74
2021/04/01 12:55:42;;;;;;;16.57;15.50;;;30.70;34.50;;;;;;4953949;29;20935;-73
2021/04/01 12:58:16;;;;;;;15.23;14.33;;;30.20;34.50;;;;;;4954149;29;20464;-74
2021/04/01 13:00:46;;;;;;;15.33;14.23;;;30.20;34.70;;;;;;4954273;29;20456;-73
2021/04/01 13:03:12;;;;;;;16.40;14.90;;;30.30;35.00;;;;;;4954227;28;20460;-74
2021/04/01 13:05:41;;;;;;;16.27;15.33;;;30.40;35.10;;;;;;4953954;29;20611;-74
2021/04/01 13:10:59;;;;;;;16.20;15.07;;;30.20;34.50;;;;;;4938834;29;20444;-74
2021/04/01 13:13:25;;;;;;;15.90;15.10;;;29.80;35.20;;;;;;4953956;28;20449;-73
2021/04/01 13:15:51;;;;;;;15.87;14.97;;;29.10;35.00;;;;;;4953794;28;20472;-73
2021/04/01 13:18:18;;;;;;;14.60;13.90;;;28.50;35.50;;;;;;4953678;28;21025;-73
2021/04/01 13:20:45;;;;;;;15.90;14.83;;;28.20;36.50;;;;;;4953895;29;20452;-74
2021/04/01 13:23:25;;;;;;;15.97;14.70;;;28.10;37.00;;;;;;4953855;28;20869;-73
2021/04/01 13:25:54;;;;;;;15.50;14.47;;;27.90;37.20;;;;;;4953085;28;21060;-73
2021/04/01 13:28:21;;;;;;;16.23;14.90;;;27.60;38.10;;;;;;4953734;29;20456;-73
2021/04/01 13:30:50;;;;;;;15.50;14.50;;;27.60;38.70;;;;;;4953803;28;20456;-73
2021/04/01 13:33:21;;;;;;;15.30;14.27;;;27.30;38.90;;;;;;4953573;29;20806;-72